Time;durP1;ratioP1;P1;durP2;ratioP2;P2;SDS_P1;SDS_P2;PMS_P1;PMS_P2;Temp;Humidity;BMP_temperature;BMP_pressure;BME280_temperature;BME280_humidity;BME280_pressure;Samples;Min_cycle;Max_cycle;Signal;HPM_P1;HPM_P2
2022/09/24 13:26:33;;;;;;;0.88;0.82;;;;;;;19.89;32.13;98971.75;5067727;27;1568397;-78
2022/09/24 13:29:05;;;;;;;1.35;0.93;;;;;;;19.91;32.06;98977.63;5119867;28;20031;-74
2022/09/24 13:31:48;;;;;;;2.42;1.45;;;;;;;19.96;31.51;98946.06;5121146;28;20061;-78
2022/09/24 13:34:20;;;;;;;1.23;0.90;;;;;;;20.19;31.76;98950.59;5118964;27;20019;-76
2022/09/24 13:36:56;;;;;;;2.03;1.40;;;;;;;19.68;32.38;98863.69;5123529;28;20030;-78
2022/09/24 13:39:39;;;;;;;1.88;1.48;;;;;;;20.40;31.68;98954.16;5125758;28;20423;-79
2022/09/24 13:42:24;;;;;;;0.85;0.77;;;;;;;20.50;30.13;98943.50;5115720;28;20027;-76
2022/09/24 13:45:02;;;;;;;1.48;1.00;;;;;;;20.60;30.93;98934.44;5121914;28;20390;-77
2022/09/24 13:47:36;;;;;;;1.23;0.90;;;;;;;20.75;31.16;98931.44;5116508;28;20430;-77
2022/09/24 13:50:11;;;;;;;0.95;0.80;;;;;;;21.05;29.89;98946.72;5123656;27;20027;-79
2022/09/24 13:52:48;;;;;;;1.00;0.80;;;;;;;21.21;30.14;98953.75;5116923;28;20034;-77
2022/09/24 13:55:21;;;;;;;0.73;0.70;;;;;;;21.09;30.66;98958.50;5113682;27;20193;-77
2022/09/24 13:57:47;;;;;;;1.35;1.23;;;;;;;20.76;30.34;98907.72;5122866;28;20033;-79
2022/09/24 14:00:19;;;;;;;2.17;1.52;;;;;;;20.74;30.96;98896.22;5126157;28;20110;-78
2022/09/24 14:03:22;;;;;;;11.80;1.85;;;;;;;20.94;30.89;98954.31;5112936;28;20019;-77
2022/09/24 14:05:50;;;;;;;1.38;1.27;;;;;;;20.50;30.07;98916.22;5116368;28;20032;-78
2022/09/24 14:08:19;;;;;;;1.30;1.17;;;;;;;20.53;31.67;98920.06;5126196;27;20015;-77
2022/09/24 14:10:49;;;;;;;2.22;1.40;;;;;;;20.29;31.04;98909.91;5123500;28;20113;-76
2022/09/24 14:13:23;;;;;;;2.30;1.50;;;;;;;20.55;31.20;98954.03;5122793;28;20024;-74
2022/09/24 14:15:59;;;;;;;3.17;1.77;;;;;;;20.54;31.59;98958.88;5125666;28;20088;-78
2022/09/24 14:18:26;;;;;;;9.00;2.13;;;;;;;20.55;31.67;98954.81;5123691;28;20028;-79
2022/09/24 14:21:05;;;;;;;2.37;1.50;;;;;;;20.44;31.21;98948.31;5117084;28;20389;-76
2022/09/24 14:23:36;;;;;;;4.90;2.38;;;;;;;20.44;32.27;98951.13;5120661;28;20250;-77
2022/09/24 14:26:03;;;;;;;3.17;2.33;;;;;;;20.23;32.33;98937.16;5121696;28;20043;-78
2022/09/24 14:28:31;;;;;;;4.97;1.67;;;;;;;20.07;31.71;98937.00;5120260;28;20103;-77
2022/09/24 14:30:58;;;;;;;3.28;1.52;;;;;;;20.39;32.35;98949.03;5125629;28;20122;-77
2022/09/24 14:33:31;;;;;;;2.42;1.20;;;;;;;20.38;33.00;98939.84;5110673;28;20517;-78
2022/09/24 14:35:59;;;;;;;4.05;1.63;;;;;;;20.41;31.38;98952.91;5120541;28;20468;-79
2022/09/24 14:38:34;;;;;;;1.63;1.10;;;;;;;20.34;31.94;98944.16;5105073;28;20028;-78
2022/09/24 14:41:17;;;;;;;1.40;1.30;;;;;;;20.31;32.16;98948.69;5101528;28;20031;-77
2022/09/24 14:43:47;;;;;;;4.40;1.60;;;;;;;20.14;33.29;98931.69;5100875;28;20483;-79
2022/09/24 14:46:20;;;;;;;1.95;1.40;;;;;;;20.10;33.66;98933.97;5096450;28;20076;-73
2022/09/24 14:48:45;;;;;;;2.58;2.10;;;;;;;20.17;32.81;98941.16;5108152;28;20016;-74
2022/09/24 14:51:27;;;;;;;2.67;1.48;;;;;;;19.65;32.40;98882.25;5097352;28;20027;-77
2022/09/24 14:54:17;;;;;;;2.05;1.58;;;;;;;20.06;33.59;98941.84;5101636;28;20111;-78
2022/09/24 14:56:44;;;;;;;4.75;1.92;;;;;;;20.00;33.06;98917.81;5105078;28;20490;-77
2022/09/24 14:59:15;;;;;;;1.95;1.50;;;;;;;19.99;33.39;98919.84;5108959;28;20062;-75
2022/09/24 15:01:42;;;;;;;3.05;1.23;;;;;;;19.98;33.28;98918.28;5095320;28;20024;-78
2022/09/24 15:04:25;;;;;;;1.77;1.60;;;;;;;20.31;32.87;98934.66;5099976;28;20077;-78
2022/09/24 15:06:51;;;;;;;2.33;1.45;;;;;;;20.26;35.33;98926.94;5109049;28;20074;-76
2022/09/24 15:09:26;;;;;;;2.38;1.52;;;;;;;20.32;34.31;98950.25;5101702;28;20026;-78
2022/09/24 15:11:54;;;;;;;2.47;1.35;;;;;;;20.36;34.74;98947.22;5104165;28;20040;-77
2022/09/24 15:14:30;;;;;;;6.45;1.85;;;;;;;20.33;35.53;98945.41;5100186;28;20115;-78
2022/09/24 15:17:18;;;;;;;1.45;1.35;;;;;;;20.30;34.85;98947.16;5100938;28;20441;-76
2022/09/24 15:19:44;;;;;;;0.98;0.90;;;;;;;20.00;35.47;98927.00;5102972;28;20471;-77
2022/09/24 15:22:10;;;;;;;0.95;0.80;;;;;;;19.98;35.22;98943.53;5109337;28;20110;-73
2022/09/24 15:24:35;;;;;;;1.77;1.10;;;;;;;19.71;35.89;98902.72;5111217;28;20110;-77
2022/09/24 15:27:04;;;;;;;1.75;1.10;;;;;;;19.86;38.51;98950.28;5105425;28;20407;-79
2022/09/24 15:29:30;;;;;;;0.82;0.82;;;;;;;19.81;40.37;98948.19;5100876;28;20034;-79
2022/09/24 15:31:57;;;;;;;3.22;1.42;;;;;;;19.68;38.54;98925.38;5102077;28;20031;-78
2022/09/24 15:34:22;;;;;;;3.45;2.15;;;;;;;19.69;40.37;98949.34;5101050;28;20066;-79
2022/09/24 15:36:52;;;;;;;4.13;1.60;;;;;;;19.44;40.18;98898.31;5104341;28;20466;-77
2022/09/24 15:39:19;;;;;;;6.85;1.48;;;;;;;19.75;39.58;98955.78;5104615;28;20031;-78
2022/09/24 15:41:44;;;;;;;3.97;1.80;;;;;;;19.80;38.63;98953.03;5105879;28;20055;-78
2022/09/24 15:44:21;;;;;;;6.70;3.45;;;;;;;19.64;39.77;98911.56;5101331;28;20107;-78
2022/09/24 15:46:49;;;;;;;3.90;2.70;;;;;;;19.72;38.94;98948.34;5107225;28;20436;-78
2022/09/24 15:49:20;;;;;;;3.03;1.92;;;;;;;19.86;39.68;98953.09;5092710;28;20039;-78
2022/09/24 15:51:53;;;;;;;4.85;1.92;;;;;;;19.60;40.22;98952.28;5105127;28;20028;-78
2022/09/24 15:54:20;;;;;;;2.63;1.20;;;;;;;19.39;41.78;98959.91;5107013;28;20026;-78
2022/09/24 15:56:51;;;;;;;2.85;1.20;;;;;;;19.29;42.46;98964.84;5109022;28;20391;-79
2022/09/24 15:59:17;;;;;;;5.18;1.40;;;;;;;19.19;42.66;98969.06;5107900;28;20096;-79
2022/09/24 16:01:44;;;;;;;5.78;1.67;;;;;;;18.91;43.47;98973.50;5099658;28;20456;-79
2022/09/24 16:04:10;;;;;;;3.58;1.23;;;;;;;18.58;43.38;98943.72;5106059;28;20012;-80
2022/09/24 16:06:36;;;;;;;2.92;1.80;;;;;;;18.58;44.18;98965.34;5100355;28;20051;-78
2022/09/24 16:09:02;;;;;;;4.07;1.85;;;;;;;18.45;44.46;98967.63;5107053;28;20132;-79
2022/09/24 16:11:28;;;;;;;7.38;1.60;;;;;;;18.37;45.86;98975.66;5092020;28;20027;-77
2022/09/24 16:13:53;;;;;;;2.58;1.27;;;;;;;17.93;47.33;98955.28;5097048;28;20388;-79
2022/09/24 16:16:19;;;;;;;1.83;1.20;;;;;;;17.70;49.33;98954.88;5106704;28;20485;-79
2022/09/24 16:18:44;;;;;;;1.77;1.15;;;;;;;17.49;50.57;98958.72;5098686;28;20027;-76
2022/09/24 16:21:10;;;;;;;2.28;1.10;;;;;;;17.47;51.05;98986.38;5103594;28;20028;-79
2022/09/24 16:23:35;;;;;;;2.88;0.95;;;;;;;16.97;52.23;98921.84;5106181;28;20027;-79
2022/09/24 16:26:02;;;;;;;1.20;1.08;;;;;;;17.09;50.92;98973.13;5094231;28;20395;-79
2022/09/24 16:28:29;;;;;;;2.83;1.20;;;;;;;16.97;52.14;98977.69;5095007;28;20487;-78
2022/09/24 16:30:54;;;;;;;7.50;1.02;;;;;;;16.32;52.36;98905.09;5108753;28;20077;-79
2022/09/24 16:33:21;;;;;;;1.33;1.08;;;;;;;16.57;53.70;98966.81;5103425;28;20020;-79
2022/09/24 16:35:47;;;;;;;1.63;1.08;;;;;;;16.03;56.68;98928.72;5103772;27;20360;-80
2022/09/24 16:38:13;;;;;;;3.08;2.65;;;;;;;15.87;57.68;98921.47;5100747;28;20058;-79
2022/09/24 16:40:38;;;;;;;3.53;1.95;;;;;;;16.33;58.00;98995.88;5096818;28;20024;-80
2022/09/24 16:43:04;;;;;;;2.47;1.60;;;;;;;16.33;58.21;98995.88;5104273;28;20042;-77
2022/09/24 16:45:31;;;;;;;5.45;2.90;;;;;;;15.82;58.58;98954.75;5102325;28;20020;-78
2022/09/24 16:47:56;;;;;;;3.22;1.98;;;;;;;15.69;58.76;98973.63;5091794;28;20086;-78
2022/09/24 16:50:24;;;;;;;1.38;1.20;;;;;;;15.78;60.18;99005.06;5101490;28;20051;-79
2022/09/24 16:52:53;;;;;;;6.82;2.75;;;;;;;15.78;60.63;99012.66;5104382;28;20028;-79
2022/09/24 16:55:19;;;;;;;3.00;2.00;;;;;;;15.66;61.00;98997.63;5105883;28;20054;-78
2022/09/24 16:57:44;;;;;;;5.28;2.10;;;;;;;15.53;60.45;98982.31;5095698;28;20540;-75
2022/09/24 17:00:11;;;;;;;4.03;2.78;;;;;;;15.24;61.09;98986.25;5103228;28;20035;-80
2022/09/24 17:02:36;;;;;;;7.45;3.25;;;;;;;15.35;60.67;99016.44;5090453;28;20152;-77
2022/09/24 17:05:03;;;;;;;5.75;2.97;;;;;;;15.22;61.44;99030.47;5100471;28;20053;-77
2022/09/24 17:07:30;;;;;;;4.22;2.30;;;;;;;14.75;60.80;98968.81;5097120;28;20096;-79
2022/09/24 17:10:14;;;;;;;2.90;2.03;;;;;;;15.11;61.86;99057.19;5108813;28;20115;-75
2022/09/24 17:12:48;;;;;;;1.95;1.23;;;;;;;14.83;61.48;99034.06;5093406;28;20086;-80
2022/09/24 17:15:15;;;;;;;1.33;1.17;;;;;;;14.17;61.49;98958.28;5100000;28;20120;-78
2022/09/24 17:17:42;;;;;;;7.60;1.60;;;;;;;14.64;62.29;99031.19;5112177;28;20054;-75
2022/09/24 17:20:08;;;;;;;14.85;3.90;;;;;;;14.67;62.93;99043.41;5111451;28;20077;-78
2022/09/24 17:22:35;;;;;;;3.72;2.53;;;;;;;14.59;63.36;99042.88;5111140;28;20027;-77
2022/09/24 17:25:00;;;;;;;11.65;4.25;;;;;;;14.56;64.88;99056.94;5097785;28;20039;-76
2022/09/24 17:27:27;;;;;;;3.28;1.90;;;;;;;14.51;65.58;99057.53;5093598;28;20097;-76
2022/09/24 17:29:53;;;;;;;4.15;2.17;;;;;;;14.49;66.07;99034.94;5110705;28;20024;-75
2022/09/24 17:32:19;;;;;;;4.78;1.48;;;;;;;14.46;66.42;99036.66;5104088;28;20440;-75
2022/09/24 17:34:44;;;;;;;2.83;1.77;;;;;;;13.82;66.68;98977.03;5109919;28;20066;-78
2022/09/24 17:37:10;;;;;;;1.70;1.60;;;;;;;14.09;66.99;99041.16;5098332;28;20489;-78
2022/09/24 17:39:35;;;;;;;2.83;1.77;;;;;;;13.96;67.29;99036.88;5104041;28;20463;-77
2022/09/24 17:42:01;;;;;;;7.32;2.55;;;;;;;13.98;67.09;99017.75;5094046;28;20427;-77
2022/09/24 17:44:27;;;;;;;11.18;3.45;;;;;;;14.10;66.20;99041.94;5101297;28;20047;-74
2022/09/24 17:46:52;;;;;;;21.08;5.53;;;;;;;13.86;65.99;99038.81;5102339;28;20020;-77
2022/09/24 17:49:18;;;;;;;25.08;7.15;;;;;;;13.94;67.07;99061.53;5108647;28;20023;-76
2022/09/24 17:51:51;;;;;;;20.23;4.28;;;;;;;13.18;67.64;98972.94;5100341;28;20050;-75
2022/09/24 17:54:20;;;;;;;12.60;5.40;;;;;;;13.69;69.10;99045.75;5106690;28;20180;-77
2022/09/24 17:56:46;;;;;;;17.92;6.60;;;;;;;-143.85;100.00;70650.75;5100134;28;20028;-75
2022/09/24 17:59:13;;;;;;;43.33;14.07;;;;;;;-143.85;100.00;70650.75;5107662;28;20043;-78
2022/09/24 18:01:40;;;;;;;9.50;4.13;;;;;;;-143.85;100.00;70650.75;5104784;28;20047;-78
2022/09/24 18:04:10;;;;;;;7.47;2.60;;;;;;;-143.85;100.00;70650.75;5099452;28;20102;-76
2022/09/24 18:06:38;;;;;;;1.60;1.23;;;;;;;-143.85;100.00;70650.75;5104643;28;20274;-74
2022/09/24 18:09:04;;;;;;;2.55;1.77;;;;;;;-143.85;100.00;70650.75;5097913;28;20024;-77
2022/09/24 18:11:40;;;;;;;1.83;1.40;;;;;;;-143.85;100.00;70650.75;5110860;28;20104;-77
2022/09/24 18:14:05;;;;;;;2.55;1.30;;;;;;;-143.85;100.00;70650.75;5114730;28;20034;-79
2022/09/24 18:16:32;;;;;;;5.22;2.30;;;;;;;-143.85;100.00;70650.75;5098950;28;20015;-78
2022/09/24 18:18:59;;;;;;;3.85;1.60;;;;;;;-143.85;100.00;70650.75;5106975;28;20031;-77
2022/09/24 18:21:26;;;;;;;1.98;1.75;;;;;;;-143.85;100.00;70650.75;5119066;27;20023;-74
2022/09/24 18:23:57;;;;;;;5.60;1.83;;;;;;;-143.85;100.00;70650.75;5095576;28;20039;-78
2022/09/24 18:26:28;;;;;;;2.17;1.83;;;;;;;-143.85;100.00;70650.75;5096458;28;20043;-76
2022/09/24 18:29:00;;;;;;;10.80;3.53;;;;;;;-143.85;100.00;70650.75;5105809;28;20032;-77
2022/09/24 18:31:28;;;;;;;2.45;1.95;;;;;;;-143.85;100.00;70650.75;5115666;27;20403;-79
2022/09/24 18:33:55;;;;;;;14.05;4.55;;;;;;;-143.85;100.00;70650.75;5101575;28;20114;-79
2022/09/24 18:36:24;;;;;;;5.60;2.37;;;;;;;-143.85;100.00;70650.75;5109123;28;20042;-76
2022/09/24 18:38:50;;;;;;;1.90;1.48;;;;;;;-143.85;100.00;70650.75;5095397;28;20752;-74
2022/09/24 18:41:24;;;;;;;2.35;2.10;;;;;;;-143.85;100.00;70650.75;5097049;28;20024;-76
2022/09/24 18:43:50;;;;;;;7.80;1.90;;;;;;;-143.85;100.00;70650.75;5111820;28;20024;-77
2022/09/24 18:46:17;;;;;;;7.18;2.80;;;;;;;-143.85;100.00;70650.75;5100318;28;20518;-77
2022/09/24 18:48:48;;;;;;;24.30;6.82;;;;;;;-143.85;100.00;70650.75;5111690;28;20463;-75
2022/09/24 18:51:29;;;;;;;17.70;4.85;;;;;;;-143.85;100.00;70650.75;5094923;28;20035;-77
2022/09/24 18:53:57;;;;;;;10.55;4.25;;;;;;;-143.85;100.00;70650.75;5105657;28;20023;-77
2022/09/24 18:56:24;;;;;;;14.20;5.07;;;;;;;-143.85;100.00;70650.75;5096477;28;20108;-75
2022/09/24 18:59:01;;;;;;;81.32;13.93;;;;;;;-143.85;100.00;70650.75;5107691;28;20019;-74
2022/09/24 19:01:27;;;;;;;44.15;12.38;;;;;;;-143.85;100.00;70650.75;5096756;28;20028;-74
2022/09/24 19:03:53;;;;;;;32.53;9.13;;;;;;;-143.85;100.00;70650.75;5105643;28;20027;-77
2022/09/24 19:06:19;;;;;;;11.18;3.58;;;;;;;-143.85;100.00;70650.75;5101497;28;20095;-77
2022/09/24 19:08:45;;;;;;;12.90;4.20;;;;;;;-143.85;100.00;70650.75;5107129;28;20031;-77
2022/09/24 19:11:12;;;;;;;13.05;4.03;;;;;;;-143.85;100.00;70650.75;5113148;28;20087;-77
2022/09/24 19:13:40;;;;;;;11.05;3.05;;;;;;;-143.85;100.00;70650.75;5111690;28;20035;-80
2022/09/24 19:16:11;;;;;;;12.52;3.97;;;;;;;-143.85;100.00;70650.75;5113109;28;20055;-78
2022/09/24 19:18:38;;;;;;;7.10;2.65;;;;;;;-143.85;100.00;70650.75;5102402;28;20037;-77
2022/09/24 19:21:05;;;;;;;5.47;2.47;;;;;;;-143.85;100.00;70650.75;5109186;28;20076;-76
2022/09/24 19:23:38;;;;;;;4.70;1.70;;;;;;;-143.85;100.00;70650.75;5098095;28;20020;-77
2022/09/24 19:26:05;;;;;;;4.35;1.60;;;;;;;-143.85;100.00;70650.75;5101382;28;20040;-77
2022/09/24 19:28:30;;;;;;;3.50;2.35;;;;;;;-143.85;100.00;70650.75;5098092;28;20058;-77
2022/09/24 19:30:56;;;;;;;2.75;1.88;;;;;;;-143.85;100.00;70650.75;5097061;28;20459;-79
2022/09/24 19:33:22;;;;;;;3.38;1.80;;;;;;;-143.85;100.00;70650.75;5101145;28;20024;-80
2022/09/24 19:35:56;;;;;;;3.97;1.67;;;;;;;-143.85;100.00;70650.75;5093363;28;20043;-77
2022/09/24 19:38:27;;;;;;;3.08;2.55;;;;;;;-143.85;100.00;70650.75;5111976;28;20110;-79
2022/09/24 19:41:00;;;;;;;4.05;2.33;;;;;;;-143.85;100.00;70650.75;5099769;28;20023;-78
2022/09/24 19:43:26;;;;;;;9.70;2.03;;;;;;;-143.85;100.00;70650.75;5098865;28;20015;-76
2022/09/24 19:45:53;;;;;;;7.82;3.05;;;;;;;-143.85;100.00;70650.75;5111171;28;20482;-79
2022/09/24 19:48:18;;;;;;;6.35;2.70;;;;;;;-143.85;100.00;70650.75;5104996;28;20020;-78
2022/09/24 19:50:44;;;;;;;6.97;2.65;;;;;;;-143.85;100.00;70650.75;5099499;28;20103;-78
2022/09/24 19:53:09;;;;;;;5.13;2.88;;;;;;;-143.85;100.00;70650.75;5096224;28;20024;-78
2022/09/24 19:55:35;;;;;;;5.95;2.78;;;;;;;-143.85;100.00;70650.75;5105514;28;20028;-79
2022/09/24 19:58:01;;;;;;;1.38;1.25;;;;;;;-143.85;100.00;70650.75;5093013;28;20019;-79
2022/09/24 20:00:26;;;;;;;2.80;1.95;;;;;;;-143.85;100.00;70650.75;5099737;28;20024;-80
2022/09/24 20:02:52;;;;;;;2.13;1.80;;;;;;;-143.85;100.00;70650.75;5097047;28;20019;-80
2022/09/24 20:05:17;;;;;;;7.53;2.08;;;;;;;-143.85;100.00;70650.75;5104691;28;20119;-77
2022/09/24 20:07:44;;;;;;;3.10;1.52;;;;;;;-143.85;100.00;70650.75;5104854;28;20016;-77
2022/09/24 20:10:10;;;;;;;2.15;1.63;;;;;;;-143.85;100.00;70650.75;5095270;28;20024;-77
2022/09/24 20:12:36;;;;;;;1.85;1.52;;;;;;;-143.85;100.00;70650.75;5095252;28;20059;-79
2022/09/24 20:15:02;;;;;;;1.65;1.38;;;;;;;-143.85;100.00;70650.75;5094165;28;20051;-79
2022/09/24 20:17:28;;;;;;;4.38;2.22;;;;;;;-143.85;100.00;70650.75;5093199;28;20023;-75
2022/09/24 20:19:54;;;;;;;3.92;1.77;;;;;;;-143.85;100.00;70650.75;5101307;28;20539;-76
2022/09/24 20:22:20;;;;;;;7.28;3.35;;;;;;;-143.85;100.00;70650.75;5100726;28;20106;-78
2022/09/24 20:24:46;;;;;;;10.02;4.28;;;;;;;-143.85;100.00;70650.75;5108436;28;20130;-77
2022/09/24 20:29:56;;;;;;;8.32;2.80;;;;;;;-143.85;100.00;70650.75;5106261;28;20038;-79
2022/09/24 20:32:21;;;;;;;6.45;2.55;;;;;;;-143.85;100.00;70650.75;5109432;28;20019;-77
2022/09/24 20:34:47;;;;;;;3.47;2.60;;;;;;;-143.85;100.00;70650.75;5109562;28;20505;-75
2022/09/24 20:37:13;;;;;;;3.72;2.13;;;;;;;-143.85;100.00;70650.75;5106523;27;20027;-79
2022/09/24 20:39:38;;;;;;;8.05;4.75;;;;;;;-143.85;100.00;70650.75;5099758;28;20171;-75
2022/09/24 20:42:04;;;;;;;2.42;1.73;;;;;;;-143.85;100.00;70650.75;5100583;28;20152;-78
2022/09/24 20:44:31;;;;;;;5.45;2.30;;;;;;;-143.85;100.00;70650.75;5091757;28;20032;-80
2022/09/24 20:46:57;;;;;;;7.45;4.25;;;;;;;-143.85;100.00;70650.75;5102048;28;20437;-73
2022/09/24 20:49:23;;;;;;;5.13;2.15;;;;;;;-143.85;100.00;70650.75;5102220;28;20027;-73
2022/09/24 20:51:50;;;;;;;9.50;2.47;;;;;;;-143.85;100.00;70650.75;5097835;28;20027;-76
2022/09/24 20:54:16;;;;;;;1.80;1.38;;;;;;;-143.85;100.00;70650.75;5108501;28;20019;-78
2022/09/24 20:56:41;;;;;;;7.57;2.90;;;;;;;-143.85;100.00;70650.75;5101499;28;20126;-79
2022/09/24 20:59:08;;;;;;;6.30;2.75;;;;;;;-143.85;100.00;70650.75;5094425;28;20051;-77
2022/09/24 21:01:34;;;;;;;5.60;2.97;;;;;;;-143.85;100.00;70650.75;5098473;28;20390;-78
2022/09/24 21:04:01;;;;;;;4.57;2.50;;;;;;;-143.85;100.00;70650.75;5107019;28;20022;-78
2022/09/24 21:06:28;;;;;;;5.20;2.70;;;;;;;-143.85;100.00;70650.75;5090461;28;20027;-78
2022/09/24 21:08:54;;;;;;;3.33;2.30;;;;;;;-143.85;100.00;70650.75;5104953;28;20030;-78
2022/09/24 21:11:24;;;;;;;3.55;1.85;;;;;;;-143.85;100.00;70650.75;5099441;28;20032;-78
2022/09/24 21:13:51;;;;;;;7.22;1.67;;;;;;;-143.85;100.00;70650.75;5109976;28;20386;-77
2022/09/24 21:16:20;;;;;;;4.25;2.25;;;;;;;-143.85;100.00;70650.75;5106228;28;20047;-76
2022/09/24 21:18:46;;;;;;;3.17;1.60;;;;;;;-143.85;100.00;70650.75;5107710;28;20126;-79
2022/09/24 21:21:15;;;;;;;3.33;1.95;;;;;;;-143.85;100.00;70650.75;5100797;28;20474;-76
2022/09/24 21:23:46;;;;;;;2.85;1.83;;;;;;;-143.85;100.00;70650.75;5108927;28;20027;-78
2022/09/24 21:26:19;;;;;;;2.85;2.05;;;;;;;-143.85;100.00;70650.75;5098896;28;20044;-78
2022/09/24 21:28:46;;;;;;;4.00;2.03;;;;;;;-143.85;100.00;70650.75;5101586;28;20030;-78
2022/09/24 21:31:13;;;;;;;8.77;1.83;;;;;;;-143.85;100.00;70650.75;5099081;28;20082;-77
2022/09/24 21:33:44;;;;;;;3.92;2.13;;;;;;;-143.85;100.00;70650.75;5096569;28;20031;-78
2022/09/24 21:36:12;;;;;;;3.08;1.60;;;;;;;-143.85;100.00;70650.75;5104017;28;20012;-80
2022/09/24 21:38:37;;;;;;;3.03;2.17;;;;;;;-143.85;100.00;70650.75;5104824;28;20100;-80
2022/09/24 21:41:07;;;;;;;2.75;2.42;;;;;;;-143.85;100.00;70650.75;5110096;28;20027;-79
2022/09/24 21:43:33;;;;;;;3.10;2.10;;;;;;;-143.85;100.00;70650.75;5096129;28;20058;-79
2022/09/24 21:46:00;;;;;;;4.57;2.05;;;;;;;-143.85;100.00;70650.75;5096763;28;20047;-78
2022/09/24 21:48:26;;;;;;;5.35;2.13;;;;;;;-143.85;100.00;70650.75;5103076;28;20114;-77
2022/09/24 21:51:02;;;;;;;3.08;2.00;;;;;;;-143.85;100.00;70650.75;5108308;28;20099;-80
2022/09/24 21:53:27;;;;;;;2.13;1.63;;;;;;;-143.85;100.00;70650.75;5097321;28;20035;-78
2022/09/24 21:55:53;;;;;;;2.35;1.65;;;;;;;-143.85;100.00;70650.75;5109960;28;20012;-79
2022/09/24 21:58:18;;;;;;;3.53;1.45;;;;;;;-143.85;100.00;70650.75;5100770;28;20051;-78
2022/09/24 22:00:44;;;;;;;1.30;1.13;;;;;;;-143.85;100.00;70650.75;5096534;28;20016;-77
2022/09/24 22:03:09;;;;;;;2.53;1.45;;;;;;;-143.85;100.00;70650.75;5105128;28;20024;-82
2022/09/24 22:05:42;;;;;;;3.45;1.75;;;;;;;-143.85;100.00;70650.75;5099714;28;20007;-77
2022/09/24 22:08:10;;;;;;;3.35;1.85;;;;;;;-143.85;100.00;70650.75;5112353;28;20020;-78
2022/09/24 22:10:41;;;;;;;1.67;1.55;;;;;;;-143.85;100.00;70650.75;5107352;28;20071;-78
2022/09/24 22:13:08;;;;;;;2.60;1.52;;;;;;;-143.85;100.00;70650.75;5103246;28;20035;-77
2022/09/24 22:15:36;;;;;;;3.15;1.67;;;;;;;-143.85;100.00;70650.75;5100371;28;20383;-77
2022/09/24 22:18:02;;;;;;;2.65;1.63;;;;;;;-143.85;100.00;70650.75;5102903;28;20144;-77
2022/09/24 22:20:28;;;;;;;2.85;2.03;;;;;;;-143.85;100.00;70650.75;5099757;28;20119;-76
2022/09/24 22:22:54;;;;;;;1.35;1.00;;;;;;;-143.85;100.00;70650.75;5103296;28;20020;-76
2022/09/24 22:25:20;;;;;;;2.88;1.35;;;;;;;-143.85;100.00;70650.75;5096294;28;20040;-74
2022/09/24 22:27:45;;;;;;;2.10;1.70;;;;;;;-143.85;100.00;70650.75;5097003;28;20031;-78
2022/09/24 22:30:11;;;;;;;3.40;1.80;;;;;;;-143.85;100.00;70650.75;5106602;28;20019;-76
2022/09/24 22:32:37;;;;;;;5.78;2.65;;;;;;;-143.85;100.00;70650.75;5113997;28;20059;-79
2022/09/24 22:37:47;;;;;;;3.55;1.67;;;;;;;-143.85;100.00;70650.75;5109344;28;20034;-79
2022/09/24 22:40:12;;;;;;;2.90;1.83;;;;;;;-143.85;100.00;70650.75;5105938;28;20020;-77
2022/09/24 22:42:38;;;;;;;2.10;1.65;;;;;;;-143.85;100.00;70650.75;5102775;28;20020;-77
2022/09/24 22:45:04;;;;;;;1.80;1.58;;;;;;;-143.85;100.00;70650.75;5110843;28;20104;-77
2022/09/24 22:47:29;;;;;;;2.80;1.73;;;;;;;-143.85;100.00;70650.75;5113039;28;20132;-76
2022/09/24 22:49:55;;;;;;;3.63;1.98;;;;;;;-143.85;100.00;70650.75;5102611;28;20461;-77
2022/09/24 22:52:20;;;;;;;4.00;2.30;;;;;;;-143.85;100.00;70650.75;5105055;28;20368;-77
2022/09/24 22:54:46;;;;;;;3.67;2.80;;;;;;;-143.85;100.00;70650.75;5100319;28;20019;-79
2022/09/24 22:57:11;;;;;;;3.47;1.80;;;;;;;-143.85;100.00;70650.75;5102015;28;20028;-79
2022/09/24 22:59:37;;;;;;;2.92;2.00;;;;;;;-143.85;100.00;70650.75;5104962;28;20119;-79
2022/09/24 23:02:02;;;;;;;2.55;1.77;;;;;;;-143.85;100.00;70650.75;5100733;28;20083;-78
2022/09/24 23:04:28;;;;;;;1.67;1.58;;;;;;;-143.85;100.00;70650.75;5111875;28;20023;-77
2022/09/24 23:06:54;;;;;;;3.25;2.00;;;;;;;-143.85;100.00;70650.75;5093436;28;20016;-78
2022/09/24 23:09:20;;;;;;;3.95;2.10;;;;;;;-143.85;100.00;70650.75;5093440;28;20089;-81
2022/09/24 23:11:45;;;;;;;3.50;2.33;;;;;;;-143.85;100.00;70650.75;5102595;28;20481;-79
2022/09/24 23:14:15;;;;;;;3.28;1.50;;;;;;;-143.85;100.00;70650.75;5095699;28;20031;-76
2022/09/24 23:16:41;;;;;;;1.60;1.50;;;;;;;-143.85;100.00;70650.75;5098775;28;20012;-78
2022/09/24 23:19:15;;;;;;;1.95;1.75;;;;;;;-143.85;100.00;70650.75;5100498;28;20419;-77
2022/09/24 23:21:40;;;;;;;3.67;1.67;;;;;;;-143.85;100.00;70650.75;5111747;28;20070;-79
2022/09/24 23:24:15;;;;;;;2.58;1.30;;;;;;;-143.85;100.00;70650.75;5096072;28;20459;-77
2022/09/24 23:26:41;;;;;;;2.00;1.55;;;;;;;-143.85;100.00;70650.75;5098757;28;20044;-78
2022/09/24 23:29:07;;;;;;;4.93;1.35;;;;;;;-143.85;100.00;70650.75;5105876;28;20431;-77
2022/09/24 23:31:34;;;;;;;3.40;1.95;;;;;;;-143.85;100.00;70650.75;5097045;28;20020;-78
2022/09/24 23:34:00;;;;;;;3.03;1.63;;;;;;;-143.85;100.00;70650.75;5111612;28;20065;-78
2022/09/24 23:36:29;;;;;;;2.78;2.40;;;;;;;-143.85;100.00;70650.75;5101121;28;20118;-77
2022/09/24 23:38:55;;;;;;;2.00;1.75;;;;;;;-143.85;100.00;70650.75;5101664;28;20027;-79
2022/09/24 23:41:21;;;;;;;2.35;2.15;;;;;;;-143.85;100.00;70650.75;5097039;28;20028;-78
2022/09/24 23:43:46;;;;;;;2.35;2.15;;;;;;;-143.85;100.00;70650.75;5102988;28;20047;-77
2022/09/24 23:46:12;;;;;;;5.85;2.90;;;;;;;-143.85;100.00;70650.75;5097629;28;20113;-78
2022/09/24 23:48:39;;;;;;;2.97;1.80;;;;;;;-143.85;100.00;70650.75;5104179;28;20050;-78
2022/09/24 23:51:05;;;;;;;2.17;1.95;;;;;;;-143.85;100.00;70650.75;5101853;28;20444;-80
2022/09/24 23:53:33;;;;;;;1.17;1.02;;;;;;;-143.85;100.00;70650.75;5105861;28;20024;-79
2022/09/24 23:55:58;;;;;;;2.58;1.58;;;;;;;-143.85;100.00;70650.75;5099184;28;20050;-81
2022/09/24 23:58:24;;;;;;;1.58;1.48;;;;;;;-143.85;100.00;70650.75;5092162;28;20479;-81
